Tyronza, Arkansas
Current Conditions -  °F | °C
As of 4:53 AM on Sunday 23 Nov 2014 (Local Time) from KAWM Reporting Station
Overcast Overcast  
Wind Chill: 60°   Ceiling: 1600
Heat Index: 60°   Visibility: 10mi
Dew Point: 56°   Wind: 13mph
Humidity: 86%   Direction: 140°SE
Pressure: 29.75"   Gusts: NA
Location:  35.49°N, 90.36°W
Report Text: KAWM 231053Z AUTO 14011KT 10SM OVC016 16/13 A2975 RMK AO2 SLP073 T01560133
Loading
Personal Weather Stations






























Interactive Weather Map New forecast layout! Learn more

10-Day Weather Forecast

Advertisements
Track Severe Weather on mobile